Comité directeur de l'aéroclub

Bureau Directeur 2017 :

Suite à l’Assemblée Générale Ordinaire et à l’élection des tiers sortants et de deux nouveaux candidats, une réunion de bureau a eu lieu afin de déterminer l’attribution des fonctions.
Le bureau est désormais composé comme suit :

Président : Michel Richez
Vice-Président : Jean-Pierre Moreau
Trésorier : Thierry Mauberger
Trésorier adjoint : Christophe Giansanti
Secrétaire : Denis Joseph
Secrétaire adjoint : François Bureau
Relation ANEG : Christian Raffaitin
ULM : Yves Point
Membres : Serge Briant, Jean Luc Cerceau, Philippe Fernandes, Marjan Goral, Sylvette Plumé

Statuts de l'aéroclub (2015) : cliquer
Règlement intérieur (2014) : cliquer

Webcam :

Nuit aéronautique

23 Oct 2018

Heure locale,
pour LFDL uniquement.

Lever du soleil aéronautique :08:00
Lever du soleil :08:30
Coucher du soleil :18:56
Coucher du soleil aéronautique :19:26

Metar

LFBI :
2018/10/23 18:00
LFBI 231800Z AUTO 35005KT CAVOK 11/05 Q1031 NOSIG
LFBI :
Poitiers, France (LFBI) 46-35N 000-19E 120M
Oct 23, 2018 - 02:00 PM EDT / 2018.10.23 1800 UTC
Wind: from the N (350 degrees) at 6 MPH (5 KT):0
Visibility: greater than 7 mile(s):0
Temperature: 51 F (11 C)
Dew Point: 41 F (5 C)
Relative Humidity: 66%
Pressure (altimeter): 30.45 in. Hg (1031 hPa)
ob: LFBI 231800Z AUTO 35005KT CAVOK 11/05 Q1031 NOSIG
cycle: 18

Afficher le metar d'une autre station :
Code OACI :

Aéroclub de Loudun


Bellevue
86200 Loudun


Contacter Michel Richez (président)

  • Mail:michel.richez@free.fr
  • Tel:09-50-38-02-06
  • Mobile:06-52-73-09-01



agrandir le plan

Newsletter

Mon e-mail :